Girard, PA

6:02 PM EDT on May 25, 2015 (GMT -0400)
MAC's SHACK | | Change Station
CLOSE
Current Station
Personal Weather Station
Location: Lake City, PA
Elevation: 750 ft
Nearby Weather Stations

Elev 750 ft 42.01 °N, 80.34 °W | Updated 10 seconds ago

Overcast
Overcast
74.7 °F
Feels Like 74 °F
N
0.0
Wind Variable Wind from SE
Gusts 0.0 mph

Today
High -- | Low -- °F
--% Chance of Precip.
Yesterday
High -- | Low -- °F
Precip. -- in
5:52 AM 8:44 PM
First Quarter, 52% visible
Pressure 30.03 in
Visibility 7.0 miles
Clouds Mostly Cloudy 6000 ft
Mostly Cloudy 7500 ft
Heat Index 74 °F
Dew Point 70 °F
Humidity 86%
Rainfall 0.09 in
Snow Depth Not available.
UV 2.0 out of 12
Pollen 9.40 out of 12
Air Quality Not available.
Flu Activity Sporadic
METAR KERI 252151Z 27008KT 7SM -RA BKN060 BKN075 23/18 A3004 RMK AO2 WSHFT 2109 RAB13E33B51 SLP168 P0004 T02280178

More Conditions Fewer Conditions

Pressure 30.03 in
Visibility 7.0 miles
Clouds Mostly Cloudy 6000 ft
Mostly Cloudy 7500 ft
Heat Index 74 °F
Dew Point 70 °F
Humidity 86%
Rainfall 0.09 in
Snow Depth Not available.
UV 2.0 out of 12
Pollen 9.40 out of 12
Air Quality Not available.
Flu Activity Sporadic
METAR KERI 252151Z 27008KT 7SM -RA BKN060 BKN075 23/18 A3004 RMK AO2 WSHFT 2109 RAB13E33B51 SLP168 P0004 T02280178

More Conditions Fewer Conditions

Nowcast | as of 5:33 PM EDT on May 25, 2015

Scattered showers and thunderstorms will continue over northeast Ohio and northwest Pennsylvania through 7pm. The heaviest showers will be from Beach City to Canton...and from Andover to Conneaut...other heavier showers will be from Linesville to Girard...and from east of Erie to North East. Movement of the showers and storms will be northeast around 30 mph. Brief heavy rainfall and isolated lightning strikes can be expected with the storms.

×

10-Day Weather Forecast

Almanac

Astronomy

May. 25, 2015 Rise Set
Actual Time
Civil Twilight
Nautical Twilight
Astronomical Twilight
Moon
Length of Visible Light
Length of Day
Tomorrow will be .
, % of the Moon is Illuminated

Today's Extremes

State Highs State Lows

Community

WunderPhotos

Upload Photos

1,824,146 photos uploaded!

WunderBlogs® & News

Nearby

Air Quality

  Air Quality AQ Index Pollutant
Not available.

Snow Depth

Station Depth Elevation

Earthquake Activity

City Distance Mag. Time & Date
Minimum magnitude displayed is 2.5.

Coastal Water Temperatures

Place Temperature

Stations

Nearby Weather Stations

Station Location Temp. Windchill Dew Point Humidity Wind Precip. Elev Updated Type